createdAt,value
2023-02-09T00:02:15.042Z,77.72
2023-02-09T00:04:46.748Z,77.78
2023-02-09T00:07:18.380Z,77.62
2023-02-09T00:09:48.501Z,77.65
2023-02-09T00:12:38.523Z,77.33
2023-02-09T00:15:11.141Z,77.52
2023-02-09T00:17:42.800Z,77.59
2023-02-09T00:20:13.204Z,77.68
2023-02-09T00:22:44.901Z,77.86
2023-02-09T00:25:16.645Z,77.97
2023-02-09T00:27:48.285Z,78.18
2023-02-09T00:30:18.408Z,78.26
2023-02-09T00:32:50.064Z,78.39
2023-02-09T00:35:21.811Z,78.12
2023-02-09T00:37:53.434Z,78.03
2023-02-09T00:40:23.637Z,77.94
2023-02-09T00:42:55.283Z,78.23
2023-02-09T00:45:29.270Z,78.14
2023-02-09T00:48:01.243Z,78.28
2023-02-09T00:50:33.281Z,78.53
2023-02-09T00:53:04.886Z,78.49
2023-02-09T00:55:35.006Z,78.33
2023-02-09T00:58:06.585Z,78.42
2023-02-09T01:00:36.703Z,78.42
2023-02-09T01:03:08.771Z,78.79
2023-02-09T01:05:43.320Z,78.24
2023-02-09T01:08:16.479Z,78.11
2023-02-09T01:10:46.954Z,78.10
2023-02-09T01:13:18.707Z,77.92
2023-02-09T01:15:50.356Z,77.97
2023-02-09T01:18:20.489Z,77.78
2023-02-09T01:20:52.096Z,77.66
2023-02-09T01:23:22.163Z,77.72
2023-02-09T01:26:03.572Z,77.83
2023-02-09T01:28:35.546Z,77.91
2023-02-09T01:31:20.253Z,78.05
2023-02-09T01:33:56.576Z,77.81
2023-02-09T01:36:29.873Z,77.84
2023-02-09T01:39:03.145Z,77.17
2023-02-09T01:41:35.582Z,76.86
2023-02-09T01:44:22.852Z,76.64
2023-02-09T01:46:54.936Z,76.71
2023-02-09T01:49:29.033Z,76.85
2023-02-09T01:52:05.107Z,77.18
2023-02-09T01:54:41.936Z,77.40
2023-02-09T01:57:17.114Z,77.41
2023-02-09T01:59:53.125Z,77.53
2023-02-09T02:02:25.332Z,77.40
2023-02-09T02:05:00.400Z,77.43
2023-02-09T02:07:34.704Z,77.42
2023-02-09T02:10:07.578Z,77.29
2023-02-09T02:12:40.679Z,77.27
2023-02-09T02:15:15.612Z,77.36
2023-02-09T02:18:07.958Z,77.45
2023-02-09T02:21:24.932Z,77.62
2023-02-09T02:24:15.968Z,77.30
2023-02-09T02:26:59.746Z,76.98
2023-02-09T02:29:50.245Z,77.08
2023-02-09T02:32:30.804Z,77.05
2023-02-09T02:35:08.923Z,77.22
2023-02-09T02:37:57.081Z,77.16
2023-02-09T02:40:38.857Z,77.02
2023-02-09T02:43:21.607Z,77.27
2023-02-09T02:46:00.221Z,77.20
2023-02-09T02:48:38.782Z,77.12
2023-02-09T02:51:17.720Z,77.03
2023-02-09T02:53:53.786Z,77.04
2023-02-09T02:56:28.973Z,76.97
2023-02-09T02:59:03.423Z,77.26
2023-02-09T03:01:40.571Z,77.05
2023-02-09T03:04:15.154Z,76.56
2023-02-09T03:06:46.818Z,76.49
2023-02-09T03:09:20.105Z,76.75
2023-02-09T03:11:56.137Z,76.60
2023-02-09T03:14:42.722Z,76.31
2023-02-09T03:17:25.134Z,76.31
2023-02-09T03:20:06.514Z,76.66
2023-02-09T03:22:42.715Z,76.82
2023-02-09T03:25:19.628Z,76.92
2023-02-09T03:27:58.454Z,76.97
2023-02-09T03:30:31.005Z,76.90
2023-02-09T03:33:03.750Z,76.86
2023-02-09T03:35:40.488Z,76.90
2023-02-09T03:38:12.106Z,76.65
2023-02-09T03:40:42.261Z,76.33
2023-02-09T03:43:14.276Z,76.61
2023-02-09T03:45:45.911Z,76.97
2023-02-09T03:48:17.584Z,76.56
2023-02-09T03:50:47.808Z,76.47
2023-02-09T03:53:20.033Z,76.31
2023-02-09T03:55:51.701Z,76.69
2023-02-09T03:58:23.354Z,76.68
2023-02-09T04:00:53.476Z,76.85
2023-02-09T04:03:25.141Z,77.00
2023-02-09T04:05:55.273Z,76.82
2023-02-09T04:08:27.011Z,76.46
2023-02-09T04:10:59.145Z,76.75
2023-02-09T04:13:30.868Z,76.76
2023-02-09T04:16:02.554Z,76.98
2023-02-09T04:18:34.204Z,76.93
2023-02-09T04:21:06.389Z,77.05
2023-02-09T04:23:38.333Z,77.04
2023-02-09T04:26:10.250Z,77.11
2023-02-09T04:28:41.885Z,76.79
2023-02-09T04:31:14.366Z,76.90
2023-02-09T04:33:46.278Z,76.94
2023-02-09T04:36:18.146Z,76.75
2023-02-09T04:38:49.760Z,76.34
2023-02-09T04:41:21.437Z,76.21
2023-02-09T04:43:53.104Z,75.87
2023-02-09T04:46:24.705Z,75.76
2023-02-09T04:48:54.817Z,76.11
2023-02-09T04:51:26.486Z,76.75
2023-02-09T04:53:58.078Z,76.86
2023-02-09T04:56:28.171Z,77.06
2023-02-09T04:59:17.240Z,77.23
2023-02-09T05:01:48.916Z,77.15
2023-02-09T05:04:20.489Z,76.63
2023-02-09T05:06:50.593Z,76.99
2023-02-09T05:09:22.292Z,76.86
2023-02-09T05:11:53.956Z,76.84
2023-02-09T05:14:25.856Z,77.02
2023-02-09T05:16:57.654Z,77.34
2023-02-09T05:19:29.301Z,76.92
2023-02-09T05:21:59.550Z,77.12
2023-02-09T05:24:31.228Z,77.36
2023-02-09T05:27:02.888Z,77.21
2023-02-09T05:29:34.532Z,77.06
2023-02-09T05:32:04.766Z,76.95
2023-02-09T05:34:36.535Z,77.08
2023-02-09T05:37:08.187Z,77.02
2023-02-09T05:39:39.785Z,77.13
2023-02-09T05:42:16.142Z,77.05
2023-02-09T05:44:49.338Z,76.96
2023-02-09T05:47:23.152Z,77.11
2023-02-09T05:49:55.621Z,76.92
2023-02-09T05:52:27.572Z,76.80
2023-02-09T05:54:59.230Z,76.50
2023-02-09T05:57:31.228Z,76.34
2023-02-09T06:00:03.253Z,76.58
2023-02-09T06:02:43.698Z,76.83
2023-02-09T06:05:15.387Z,76.80
2023-02-09T06:07:45.558Z,77.27
2023-02-09T06:10:17.433Z,77.47
2023-02-09T06:12:49.580Z,77.45
2023-02-09T06:15:21.551Z,77.62
2023-02-09T06:17:53.296Z,77.74
2023-02-09T06:20:24.950Z,77.82
2023-02-09T06:22:56.679Z,77.89
2023-02-09T06:25:28.337Z,77.98
2023-02-09T06:28:00.263Z,77.99
2023-02-09T06:30:32.944Z,77.79
2023-02-09T06:33:04.719Z,77.94
2023-02-09T06:35:36.364Z,78.28
2023-02-09T06:38:08.167Z,79.21
2023-02-09T06:40:39.860Z,80.54
2023-02-09T06:43:11.484Z,80.89
2023-02-09T06:45:43.402Z,80.38
2023-02-09T06:48:15.105Z,78.66
2023-02-09T06:50:47.281Z,77.64
2023-02-09T06:53:19.166Z,76.99
2023-02-09T06:55:50.988Z,76.86
2023-02-09T06:58:21.305Z,76.46
2023-02-09T07:00:52.900Z,76.34
2023-02-09T07:03:23.033Z,76.65
2023-02-09T07:05:54.729Z,77.14
2023-02-09T07:08:26.335Z,76.75
2023-02-09T07:10:56.457Z,77.06
2023-02-09T07:13:28.155Z,77.18
2023-02-09T07:16:01.314Z,76.90
2023-02-09T07:18:33.310Z,77.02
2023-02-09T07:21:07.593Z,77.04
2023-02-09T07:23:39.375Z,77.05
2023-02-09T07:26:15.131Z,76.77
2023-02-09T07:28:46.803Z,76.89
2023-02-09T07:31:19.490Z,76.84
2023-02-09T07:33:51.827Z,77.21
2023-02-09T07:36:23.791Z,77.69
2023-02-09T07:38:55.732Z,77.84
2023-02-09T07:41:28.551Z,77.85
2023-02-09T07:44:00.163Z,78.09
2023-02-09T07:46:30.339Z,78.67
2023-02-09T07:49:02.114Z,79.02
2023-02-09T07:51:34.245Z,78.83
2023-02-09T07:54:08.524Z,79.12
2023-02-09T07:56:42.498Z,79.22
2023-02-09T07:59:14.218Z,79.07
2023-02-09T08:01:45.990Z,79.45
2023-02-09T08:04:17.683Z,79.70
2023-02-09T08:06:49.966Z,80.26
2023-02-09T08:09:21.612Z,80.76
2023-02-09T08:11:54.449Z,81.02
2023-02-09T08:14:29.563Z,80.94
2023-02-09T08:17:23.035Z,81.50
2023-02-09T08:20:00.142Z,81.52
2023-02-09T08:22:36.217Z,81.65
2023-02-09T08:25:09.313Z,82.16
2023-02-09T08:27:43.276Z,82.08
2023-02-09T08:30:18.435Z,81.79
2023-02-09T08:32:55.620Z,82.17
2023-02-09T08:35:29.167Z,82.28
2023-02-09T08:38:05.244Z,81.96
2023-02-09T08:40:41.331Z,82.02
2023-02-09T08:43:13.849Z,81.95
2023-02-09T08:45:45.926Z,82.04
2023-02-09T08:48:18.280Z,82.07
2023-02-09T08:50:50.283Z,81.96
2023-02-09T08:53:21.914Z,82.07
2023-02-09T08:55:52.082Z,81.42
2023-02-09T08:58:24.053Z,81.66
2023-02-09T09:00:57.537Z,81.22
2023-02-09T09:03:31.736Z,80.69
2023-02-09T09:06:05.887Z,80.34
2023-02-09T09:08:38.859Z,80.13
2023-02-09T09:11:13.125Z,79.85
2023-02-09T09:13:44.915Z,79.77
2023-02-09T09:16:19.281Z,79.59
2023-02-09T09:18:51.307Z,79.24
2023-02-09T09:21:23.017Z,78.98
2023-02-09T09:23:53.176Z,78.80
2023-02-09T09:26:24.914Z,78.49
2023-02-09T09:28:56.622Z,77.97
2023-02-09T09:31:26.856Z,77.85
2023-02-09T09:33:58.608Z,77.61
2023-02-09T09:36:28.773Z,77.39
2023-02-09T09:39:00.588Z,76.53
2023-02-09T09:41:32.385Z,76.02
2023-02-09T09:44:13.384Z,75.71
2023-02-09T09:46:47.789Z,75.45
2023-02-09T09:49:26.477Z,75.43
2023-02-09T09:52:04.674Z,74.73
2023-02-09T09:54:38.197Z,74.16
2023-02-09T09:57:19.747Z,74.15
2023-02-09T09:59:52.510Z,74.03
2023-02-09T10:02:29.824Z,73.74
2023-02-09T10:05:19.049Z,72.80
2023-02-09T10:07:58.509Z,72.42
2023-02-09T10:10:42.868Z,71.60
2023-02-09T10:13:23.000Z,70.45
2023-02-09T10:15:56.229Z,70.74
2023-02-09T10:18:30.118Z,70.64
2023-02-09T10:21:06.345Z,70.20
2023-02-09T10:23:43.239Z,70.02
2023-02-09T10:26:23.074Z,69.27
2023-02-09T10:28:56.460Z,68.39
2023-02-09T10:31:33.354Z,67.45
2023-02-09T10:34:11.617Z,67.93
2023-02-09T10:36:51.597Z,67.19
2023-02-09T10:39:26.860Z,67.31
2023-02-09T10:42:02.554Z,67.41
2023-02-09T10:44:40.337Z,66.88
2023-02-09T10:47:27.178Z,66.99
2023-02-09T10:50:06.700Z,66.06
2023-02-09T10:52:40.463Z,65.72
2023-02-09T10:55:21.176Z,65.42
2023-02-09T10:57:52.888Z,63.93
2023-02-09T11:00:33.049Z,64.33
2023-02-09T11:03:04.873Z,63.96
2023-02-09T11:05:37.481Z,63.54
2023-02-09T11:08:21.408Z,63.37
2023-02-09T11:11:03.696Z,62.00
2023-02-09T11:13:36.515Z,61.56
2023-02-09T11:16:26.657Z,61.31
2023-02-09T11:19:07.340Z,61.93
2023-02-09T11:21:56.099Z,61.82
2023-02-09T11:24:45.139Z,60.77
2023-02-09T11:27:36.863Z,59.48
2023-02-09T11:30:23.603Z,60.32
2023-02-09T11:32:59.960Z,59.69
2023-02-09T11:35:43.006Z,59.25
2023-02-09T11:38:18.315Z,59.67
2023-02-09T11:40:53.332Z,59.54
2023-02-09T11:43:33.682Z,59.95
2023-02-09T11:46:13.282Z,59.62
2023-02-09T11:48:51.049Z,59.42
2023-02-09T11:51:25.741Z,59.90
2023-02-09T11:54:04.619Z,58.81
2023-02-09T11:56:42.076Z,58.88
2023-02-09T11:59:23.375Z,58.39
2023-02-09T12:02:02.360Z,58.35
2023-02-09T12:04:49.528Z,58.21
2023-02-09T12:07:29.536Z,57.06
2023-02-09T12:10:15.611Z,57.15
2023-02-09T12:12:52.830Z,57.22
2023-02-09T12:15:29.028Z,57.23
2023-02-09T12:18:03.246Z,57.85
2023-02-09T12:20:50.940Z,57.83
2023-02-09T12:23:31.149Z,56.33
2023-02-09T12:26:23.379Z,56.31
2023-02-09T12:29:17.425Z,55.35
2023-02-09T12:32:31.236Z,56.35
2023-02-09T12:35:27.529Z,56.60
2023-02-09T12:38:18.772Z,57.13
2023-02-09T12:41:04.966Z,56.57
2023-02-09T12:43:37.738Z,56.23
2023-02-09T12:46:27.297Z,55.82
2023-02-09T12:49:22.624Z,55.94
2023-02-09T12:52:18.150Z,55.99
2023-02-09T12:54:52.288Z,54.95
2023-02-09T12:57:55.452Z,55.75
2023-02-09T13:00:40.810Z,55.38
2023-02-09T13:03:20.092Z,55.23
2023-02-09T13:05:52.822Z,55.16
2023-02-09T13:08:49.056Z,55.82
2023-02-09T13:11:29.283Z,55.52
2023-02-09T13:14:05.917Z,55.51
2023-02-09T13:16:52.405Z,55.73
2023-02-09T13:19:53.166Z,55.27
2023-02-09T13:22:41.667Z,55.20
2023-02-09T13:25:21.267Z,54.50
2023-02-09T13:27:53.036Z,54.83
2023-02-09T13:30:30.474Z,54.85
2023-02-09T13:33:10.093Z,55.19
2023-02-09T13:35:50.453Z,55.58
2023-02-09T13:38:22.993Z,55.58
2023-02-09T13:40:55.462Z,55.72
2023-02-09T13:43:32.284Z,55.60
2023-02-09T13:46:04.853Z,56.07
2023-02-09T13:48:39.457Z,55.58
2023-02-09T13:51:19.733Z,55.72
2023-02-09T13:54:00.701Z,56.11
2023-02-09T13:56:34.145Z,56.06
2023-02-09T13:59:06.123Z,55.98
2023-02-09T14:01:43.219Z,56.05
2023-02-09T14:04:20.155Z,56.18
2023-02-09T14:07:01.584Z,56.21
2023-02-09T14:09:44.541Z,56.40
2023-02-09T14:12:20.485Z,56.13
2023-02-09T14:15:16.047Z,56.04
2023-02-09T14:17:55.256Z,56.37
2023-02-09T14:20:28.144Z,56.43
2023-02-09T14:23:02.468Z,56.54
2023-02-09T14:25:34.227Z,56.40
2023-02-09T14:28:06.021Z,56.09
2023-02-09T14:30:39.666Z,56.20
2023-02-09T14:33:25.281Z,56.24
2023-02-09T14:36:01.875Z,56.22
2023-02-09T14:38:41.877Z,56.10
2023-02-09T14:41:34.524Z,56.25
2023-02-09T14:44:20.465Z,56.14
2023-02-09T14:46:53.796Z,56.30
2023-02-09T14:49:26.720Z,56.02
2023-02-09T14:52:07.295Z,56.18
2023-02-09T14:54:49.316Z,56.02
2023-02-09T14:57:21.339Z,56.06
2023-02-09T14:59:53.189Z,55.70
2023-02-09T15:02:27.255Z,55.74
2023-02-09T15:04:58.973Z,55.60
2023-02-09T15:07:31.189Z,55.64
2023-02-09T15:10:03.357Z,55.85
2023-02-09T15:12:35.168Z,55.97
2023-02-09T15:15:07.726Z,55.89
2023-02-09T15:17:39.401Z,56.08
2023-02-09T15:20:11.304Z,55.70
2023-02-09T15:22:43.008Z,56.13
2023-02-09T15:25:15.682Z,56.11
2023-02-09T15:27:51.908Z,56.18
2023-02-09T15:30:26.382Z,56.05
2023-02-09T15:32:58.055Z,56.30
2023-02-09T15:35:29.403Z,56.31
2023-02-09T15:38:02.429Z,56.53
2023-02-09T15:40:55.439Z,56.37
2023-02-09T15:43:46.212Z,56.60
2023-02-09T15:46:36.193Z,56.51
2023-02-09T15:49:08.194Z,56.67
2023-02-09T15:51:41.668Z,56.77
2023-02-09T15:54:17.683Z,56.83
2023-02-09T15:56:49.434Z,56.88
2023-02-09T15:59:23.756Z,57.05
2023-02-09T16:01:57.645Z,57.26
2023-02-09T16:04:30.590Z,57.61
2023-02-09T16:07:00.987Z,57.61
2023-02-09T16:09:33.247Z,57.67
2023-02-09T16:12:09.916Z,57.57
2023-02-09T16:14:42.464Z,57.65
2023-02-09T16:17:14.098Z,57.71
2023-02-09T16:19:45.900Z,58.04
2023-02-09T16:22:19.687Z,58.44
2023-02-09T16:24:51.764Z,58.39
2023-02-09T16:27:28.325Z,58.51
2023-02-09T16:30:01.179Z,58.80
2023-02-09T16:32:32.828Z,59.00
2023-02-09T16:35:16.152Z,59.15
2023-02-09T16:37:51.208Z,59.34
2023-02-09T16:40:27.937Z,59.36
2023-02-09T16:43:01.909Z,59.60
2023-02-09T16:45:36.380Z,59.87
2023-02-09T16:48:08.629Z,60.08
2023-02-09T16:50:45.343Z,60.21
2023-02-09T16:53:20.870Z,60.34
2023-02-09T16:55:53.232Z,60.22
2023-02-09T16:58:25.070Z,60.28
2023-02-09T17:00:55.271Z,60.28
2023-02-09T17:03:33.653Z,60.39
2023-02-09T17:06:07.204Z,60.20
2023-02-09T17:08:39.146Z,60.38
2023-02-09T17:11:19.004Z,60.35
2023-02-09T17:13:50.951Z,60.69
2023-02-09T17:16:25.088Z,60.72
2023-02-09T17:19:00.832Z,60.57
2023-02-09T17:21:35.420Z,60.69
2023-02-09T17:24:14.582Z,60.69
2023-02-09T17:26:46.540Z,60.97
2023-02-09T17:29:21.296Z,60.94
2023-02-09T17:31:53.988Z,61.11
2023-02-09T17:34:28.358Z,61.29
2023-02-09T17:37:00.722Z,61.36
2023-02-09T17:39:32.406Z,61.55
2023-02-09T17:42:02.749Z,61.52
2023-02-09T17:44:45.947Z,61.75
2023-02-09T17:47:20.997Z,61.68
2023-02-09T17:49:53.309Z,61.81
2023-02-09T17:52:26.473Z,61.87
2023-02-09T17:54:59.555Z,61.98
2023-02-09T17:57:31.569Z,61.85
2023-02-09T18:00:04.012Z,61.83
2023-02-09T18:02:36.393Z,61.82
2023-02-09T18:05:15.309Z,61.88
2023-02-09T18:07:47.893Z,61.84
2023-02-09T18:10:22.465Z,61.97
2023-02-09T18:12:57.204Z,61.99
2023-02-09T18:15:31.560Z,61.93
2023-02-09T18:18:03.646Z,61.83
2023-02-09T18:20:36.093Z,61.68
2023-02-09T18:23:08.906Z,61.81
2023-02-09T18:25:41.560Z,61.69
2023-02-09T18:28:15.526Z,61.54
2023-02-09T18:30:47.713Z,61.47
2023-02-09T18:33:19.600Z,61.64
2023-02-09T18:35:52.200Z,61.60
2023-02-09T18:38:24.173Z,61.57
2023-02-09T18:40:56.124Z,61.52
2023-02-09T18:43:27.163Z,61.39
2023-02-09T18:46:01.018Z,61.55
2023-02-09T18:48:34.116Z,61.31
2023-02-09T18:51:09.228Z,61.42
2023-02-09T18:53:41.710Z,61.06
2023-02-09T18:56:20.136Z,61.17
2023-02-09T18:58:52.870Z,61.08
2023-02-09T19:01:25.111Z,61.01
2023-02-09T19:03:57.149Z,61.04
2023-02-09T19:06:29.023Z,60.99
2023-02-09T19:09:00.758Z,61.02
2023-02-09T19:11:30.950Z,61.11
2023-02-09T19:14:20.580Z,61.15
2023-02-09T19:16:52.405Z,61.10
2023-02-09T19:19:24.801Z,61.25
2023-02-09T19:21:57.902Z,61.16
2023-02-09T19:24:29.852Z,61.05
2023-02-09T19:27:01.513Z,61.20
2023-02-09T19:29:31.721Z,60.99
2023-02-09T19:32:05.270Z,61.28
2023-02-09T19:34:39.698Z,61.31
2023-02-09T19:37:14.122Z,61.49
2023-02-09T19:39:52.752Z,61.18
2023-02-09T19:42:25.058Z,61.32
2023-02-09T19:44:57.786Z,61.25
2023-02-09T19:47:29.696Z,61.31
2023-02-09T19:50:01.460Z,61.29
2023-02-09T19:52:35.187Z,61.49
2023-02-09T19:55:07.977Z,61.50
2023-02-09T19:57:39.677Z,61.49
2023-02-09T20:00:14.595Z,61.37
2023-02-09T20:02:46.366Z,61.42
2023-02-09T20:05:18.831Z,61.43
2023-02-09T20:07:52.639Z,61.52
2023-02-09T20:10:24.812Z,61.56
2023-02-09T20:12:56.465Z,61.50
2023-02-09T20:15:26.860Z,61.37
2023-02-09T20:17:58.617Z,61.67
2023-02-09T20:20:28.893Z,61.56
2023-02-09T20:23:00.940Z,61.43
2023-02-09T20:25:31.254Z,61.50
2023-02-09T20:28:03.559Z,61.77
2023-02-09T20:30:35.255Z,61.60
2023-02-09T20:33:05.407Z,61.65
2023-02-09T20:35:39.335Z,61.95
2023-02-09T20:38:11.549Z,61.39
2023-02-09T20:40:45.190Z,61.76
2023-02-09T20:43:34.550Z,61.60
2023-02-09T20:46:26.232Z,61.60
2023-02-09T20:48:58.588Z,61.68
2023-02-09T20:51:36.683Z,61.76
2023-02-09T20:54:08.825Z,61.72
2023-02-09T20:56:40.531Z,61.86
2023-02-09T20:59:12.353Z,61.92
2023-02-09T21:01:44.946Z,61.95
2023-02-09T21:04:17.918Z,61.96
2023-02-09T21:06:49.833Z,61.69
2023-02-09T21:09:26.217Z,62.02
2023-02-09T21:11:58.400Z,61.93
2023-02-09T21:14:41.747Z,61.92
2023-02-09T21:17:15.349Z,61.97
2023-02-09T21:19:47.240Z,62.23
2023-02-09T21:22:19.307Z,62.39
2023-02-09T21:24:51.048Z,62.05
2023-02-09T21:27:21.300Z,62.06
2023-02-09T21:29:52.969Z,62.28
2023-02-09T21:32:24.655Z,62.62
2023-02-09T21:34:54.794Z,62.40
2023-02-09T21:37:26.499Z,62.45
2023-02-09T21:39:56.843Z,62.53
2023-02-09T21:42:28.821Z,62.92
2023-02-09T21:45:01.107Z,62.82
2023-02-09T21:47:35.510Z,62.97
2023-02-09T21:50:09.955Z,62.99
2023-02-09T21:52:42.166Z,63.13
2023-02-09T21:55:13.976Z,63.11
2023-02-09T21:57:45.821Z,62.90
2023-02-09T22:00:18.261Z,63.00
2023-02-09T22:02:54.447Z,63.19
2023-02-09T22:05:28.323Z,63.30
2023-02-09T22:08:00.264Z,63.07
2023-02-09T22:10:31.901Z,63.21
2023-02-09T22:13:08.444Z,63.20
2023-02-09T22:15:43.896Z,63.37
2023-02-09T22:18:16.018Z,63.41
2023-02-09T22:20:48.715Z,63.36
2023-02-09T22:23:21.349Z,63.35
2023-02-09T22:25:58.447Z,63.57
2023-02-09T22:28:30.502Z,63.72
2023-02-09T22:31:07.335Z,63.78
2023-02-09T22:33:39.056Z,63.53
2023-02-09T22:36:15.215Z,63.72
2023-02-09T22:38:47.111Z,63.50
2023-02-09T22:41:22.912Z,63.79
2023-02-09T22:43:56.748Z,63.77
2023-02-09T22:46:30.652Z,63.75
2023-02-09T22:49:05.580Z,63.67
2023-02-09T22:51:38.050Z,63.94
2023-02-09T22:54:10.536Z,63.86
2023-02-09T22:56:42.421Z,64.09
2023-02-09T22:59:15.869Z,64.27
2023-02-09T23:01:48.777Z,64.11
2023-02-09T23:04:20.531Z,64.02
2023-02-09T23:06:52.265Z,64.16
2023-02-09T23:09:23.883Z,64.12
2023-02-09T23:11:55.556Z,63.93
2023-02-09T23:14:25.636Z,64.15
2023-02-09T23:16:58.624Z,64.61
2023-02-09T23:19:30.240Z,64.44
2023-02-09T23:22:00.724Z,64.62
2023-02-09T23:24:32.390Z,64.65
2023-02-09T23:27:02.476Z,64.70
2023-02-09T23:29:34.064Z,64.87
2023-02-09T23:32:05.695Z,65.16
2023-02-09T23:34:37.408Z,65.03
2023-02-09T23:37:18.126Z,64.99
2023-02-09T23:39:55.282Z,64.98
2023-02-09T23:42:25.545Z,65.40
2023-02-09T23:44:57.212Z,65.19
2023-02-09T23:47:27.405Z,65.05
2023-02-09T23:49:59.029Z,65.50
2023-02-09T23:52:30.948Z,65.67
2023-02-09T23:55:03.943Z,65.54
2023-02-09T23:57:35.671Z,65.45
